createdAt,value
2019-05-17T00:00:48.360Z,0.00
2019-05-17T00:01:48.395Z,0.00
2019-05-17T00:02:48.421Z,0.00
2019-05-17T00:03:48.449Z,0.00
2019-05-17T00:04:48.478Z,0.00
2019-05-17T00:05:48.531Z,0.00
2019-05-17T00:06:48.535Z,0.00
2019-05-17T00:07:48.565Z,0.00
2019-05-17T00:08:48.595Z,0.00
2019-05-17T00:09:48.622Z,0.00
2019-05-17T00:10:48.652Z,0.00
2019-05-17T00:11:48.684Z,0.00
2019-05-17T00:12:48.710Z,0.00
2019-05-17T00:13:48.742Z,0.00
2019-05-17T00:14:48.771Z,0.00
2019-05-17T00:15:48.797Z,0.00
2019-05-17T00:16:49.433Z,0.00
2019-05-17T00:17:48.854Z,0.00
2019-05-17T00:18:48.883Z,0.00
2019-05-17T00:19:48.912Z,0.00
2019-05-17T00:20:48.943Z,0.00
2019-05-17T00:21:48.970Z,0.00
2019-05-17T00:22:49.203Z,0.00
2019-05-17T00:23:49.028Z,0.00
2019-05-17T00:24:49.057Z,0.00
2019-05-17T00:26:49.164Z,0.00
2019-05-17T00:27:49.166Z,0.00
2019-05-17T00:28:49.172Z,0.00
2019-05-17T00:29:49.226Z,0.00
2019-05-17T00:30:49.229Z,0.00
2019-05-17T00:31:49.281Z,0.00
2019-05-17T00:32:49.310Z,0.00
2019-05-17T00:33:49.338Z,0.00
2019-05-17T00:34:49.395Z,0.00
2019-05-17T00:35:49.395Z,0.00
2019-05-17T00:36:49.629Z,0.00
2019-05-17T00:37:49.655Z,0.00
2019-05-17T00:38:51.612Z,0.00
2019-05-17T00:40:49.519Z,0.00
2019-05-17T00:42:49.594Z,0.00
2019-05-17T00:43:49.602Z,0.00
2019-05-17T00:44:49.962Z,0.00
2019-05-17T00:46:49.687Z,0.00
2019-05-17T00:47:49.940Z,0.00
2019-05-17T00:48:49.749Z,0.00
2019-05-17T00:51:50.054Z,0.00
2019-05-17T00:52:49.880Z,0.00
2019-05-17T00:54:49.914Z,0.00
2019-05-17T00:55:49.945Z,0.00
2019-05-17T00:56:49.971Z,0.00
2019-05-17T00:57:49.999Z,0.00
2019-05-17T00:58:50.029Z,0.00
2019-05-17T00:59:50.056Z,0.00
2019-05-17T01:00:50.087Z,0.00
2019-05-17T01:01:50.112Z,0.00
2019-05-17T01:02:50.141Z,0.00
2019-05-17T01:03:50.170Z,0.00
2019-05-17T01:04:50.198Z,0.00
2019-05-17T01:06:32.769Z,0.00
2019-05-17T01:07:32.798Z,0.00
2019-05-17T01:08:32.826Z,0.00
2019-05-17T01:09:32.858Z,0.00
2019-05-17T01:10:32.882Z,0.00
2019-05-17T01:11:32.911Z,0.00
2019-05-17T01:12:32.939Z,0.00
2019-05-17T01:13:32.965Z,0.00
2019-05-17T01:14:32.996Z,0.00
2019-05-17T01:15:33.024Z,0.00
2019-05-17T01:16:33.053Z,0.00
2019-05-17T01:17:33.079Z,0.00
2019-05-17T01:18:33.109Z,0.00
2019-05-17T01:19:33.136Z,0.00
2019-05-17T01:20:33.167Z,0.00
2019-05-17T01:21:33.192Z,0.00
2019-05-17T01:22:33.220Z,0.00
2019-05-17T01:23:33.248Z,0.00
2019-05-17T01:24:33.279Z,0.00
2019-05-17T01:25:33.305Z,0.00
2019-05-17T01:26:33.335Z,0.00
2019-05-17T01:27:33.362Z,0.00
2019-05-17T01:28:33.393Z,0.00
2019-05-17T01:29:33.419Z,0.00
2019-05-17T01:30:33.447Z,0.00
2019-05-17T01:31:33.476Z,0.00
2019-05-17T01:32:33.504Z,0.00
2019-05-17T01:33:33.533Z,0.00
2019-05-17T01:34:33.572Z,0.00
2019-05-17T01:35:33.590Z,0.00
2019-05-17T01:36:33.619Z,0.00
2019-05-17T01:37:33.644Z,0.00
2019-05-17T01:38:33.676Z,0.00
2019-05-17T01:39:33.711Z,0.00
2019-05-17T01:40:33.729Z,0.00
2019-05-17T01:41:33.758Z,0.00
2019-05-17T01:42:33.786Z,0.00
2019-05-17T01:43:33.814Z,0.00
2019-05-17T01:44:33.843Z,0.00
2019-05-17T01:45:33.874Z,0.00
2019-05-17T01:46:33.899Z,0.00
2019-05-17T01:47:33.927Z,0.00
2019-05-17T01:48:36.367Z,0.00
2019-05-17T01:49:36.169Z,0.00
2019-05-17T01:50:34.011Z,0.00
2019-05-17T01:51:34.039Z,0.00
2019-05-17T01:52:34.069Z,0.00
2019-05-17T01:53:36.309Z,0.00
2019-05-17T01:54:36.159Z,0.00
2019-05-17T01:55:34.157Z,0.00
2019-05-17T01:56:34.182Z,0.00
2019-05-17T01:57:36.758Z,0.00
2019-05-17T01:58:36.510Z,0.00
2019-05-17T01:59:34.489Z,0.00
2019-05-17T02:00:37.287Z,0.00
2019-05-17T02:01:36.895Z,0.00
2019-05-17T02:02:36.474Z,0.00
2019-05-17T02:03:34.377Z,0.00
2019-05-17T02:04:34.418Z,0.00
2019-05-17T02:05:36.923Z,0.00
2019-05-17T02:06:36.683Z,0.00
2019-05-17T02:07:34.489Z,0.00
2019-05-17T02:08:37.024Z,0.00
2019-05-17T02:09:38.590Z,0.00
2019-05-17T02:10:34.574Z,0.00
2019-05-17T02:11:37.048Z,0.00
2019-05-17T02:12:37.016Z,0.00
2019-05-17T02:13:34.657Z,0.00
2019-05-17T02:14:34.685Z,0.00
2019-05-17T02:15:34.714Z,0.00
2019-05-17T02:16:37.409Z,0.00
2019-05-17T02:17:37.157Z,0.00
2019-05-17T02:18:37.038Z,0.00
2019-05-17T02:19:37.021Z,0.00
2019-05-17T02:20:36.969Z,0.00
2019-05-17T02:21:36.749Z,0.00
2019-05-17T02:22:36.798Z,0.00
2019-05-17T02:23:36.984Z,0.00
2019-05-17T02:24:37.036Z,0.00
2019-05-17T02:25:36.903Z,0.00
2019-05-17T02:26:37.306Z,0.00
2019-05-17T02:27:40.848Z,0.00
2019-05-17T02:28:35.076Z,0.00
2019-05-17T02:29:35.105Z,0.00
2019-05-17T02:30:35.132Z,0.00
2019-05-17T02:31:35.160Z,0.00
2019-05-17T02:32:35.210Z,0.00
2019-05-17T02:34:35.253Z,0.00
2019-05-17T02:35:35.272Z,0.00
2019-05-17T02:36:35.298Z,0.00
2019-05-17T02:37:35.329Z,0.00
2019-05-17T02:38:35.361Z,0.00
2019-05-17T02:39:52.602Z,0.00
2019-05-17T02:40:35.411Z,0.00
2019-05-17T02:41:35.440Z,0.00
2019-05-17T02:42:35.465Z,0.00
2019-05-17T02:43:35.498Z,0.00
2019-05-17T02:44:35.522Z,0.00
2019-05-17T02:45:35.559Z,0.00
2019-05-17T02:46:35.577Z,0.00
2019-05-17T02:47:35.603Z,0.00
2019-05-17T02:48:35.635Z,0.00
2019-05-17T02:49:36.110Z,0.00
2019-05-17T02:50:35.686Z,0.00
2019-05-17T02:51:35.714Z,0.00
2019-05-17T02:52:35.744Z,0.00
2019-05-17T02:53:35.772Z,0.00
2019-05-17T02:54:35.798Z,0.00
2019-05-17T02:55:35.825Z,0.00
2019-05-17T02:56:35.853Z,0.00
2019-05-17T02:57:35.882Z,0.00
2019-05-17T02:58:35.908Z,0.00
2019-05-17T02:59:35.945Z,0.00
2019-05-17T03:00:35.965Z,0.00
2019-05-17T03:01:35.993Z,0.00
2019-05-17T03:02:36.019Z,0.00
2019-05-17T03:03:36.051Z,0.00
2019-05-17T03:04:36.075Z,0.00
2019-05-17T03:05:36.102Z,0.00
2019-05-17T03:06:36.129Z,0.00
2019-05-17T03:07:36.157Z,0.00
2019-05-17T03:08:36.211Z,0.00
2019-05-17T03:09:36.241Z,0.00
2019-05-17T03:10:36.239Z,0.00
2019-05-17T03:11:36.268Z,0.00
2019-05-17T03:12:36.295Z,0.00
2019-05-17T03:13:36.323Z,4.00
2019-05-17T03:14:36.349Z,4.00
2019-05-17T03:15:36.378Z,4.00
2019-05-17T03:16:36.413Z,4.00
2019-05-17T03:17:36.435Z,4.00
2019-05-17T03:18:36.461Z,8.00
2019-05-17T03:19:36.492Z,4.00
2019-05-17T03:20:36.516Z,8.00
2019-05-17T03:21:36.544Z,8.00
2019-05-17T03:22:36.571Z,8.00
2019-05-17T03:23:36.598Z,8.00
2019-05-17T03:24:36.628Z,12.00
2019-05-17T03:25:36.653Z,16.00
2019-05-17T03:26:36.681Z,16.00
2019-05-17T03:27:36.709Z,20.00
2019-05-17T03:28:36.738Z,24.00
2019-05-17T03:29:37.095Z,28.00
2019-05-17T03:30:37.504Z,36.00
2019-05-17T03:31:44.677Z,36.00
2019-05-17T03:32:37.202Z,44.00
2019-05-17T03:33:37.200Z,52.00
2019-05-17T03:35:38.483Z,64.00
2019-05-17T03:36:37.291Z,72.00
2019-05-17T03:37:38.061Z,84.00
2019-05-17T03:38:37.036Z,96.00
2019-05-17T03:41:03.397Z,124.00
2019-05-17T03:41:37.117Z,136.00
2019-05-17T03:42:37.558Z,156.00
2019-05-17T03:43:40.348Z,172.00
2019-05-17T03:44:37.179Z,192.00
2019-05-17T03:45:37.208Z,208.00
2019-05-17T03:46:37.235Z,232.00
2019-05-17T03:47:37.268Z,256.00
2019-05-17T03:49:39.541Z,312.00
2019-05-17T03:50:37.370Z,340.00
2019-05-17T03:51:37.399Z,368.00
2019-05-17T03:52:37.807Z,400.00
2019-05-17T03:53:37.471Z,432.00
2019-05-17T03:54:37.457Z,468.00
2019-05-17T03:55:37.484Z,500.00
2019-05-17T03:56:37.514Z,528.00
2019-05-17T03:57:37.541Z,564.00
2019-05-17T03:58:37.568Z,600.00
2019-05-17T03:59:37.597Z,636.00
2019-05-17T04:00:37.628Z,676.00
2019-05-17T04:01:37.650Z,708.00
2019-05-17T04:02:37.679Z,748.00
2019-05-17T04:03:37.707Z,784.00
2019-05-17T04:04:37.733Z,828.00
2019-05-17T04:05:37.760Z,864.00
2019-05-17T04:06:37.788Z,908.00
2019-05-17T04:07:37.817Z,948.00
2019-05-17T04:08:37.843Z,992.00
2019-05-17T04:09:38.072Z,1032.00
2019-05-17T04:10:37.897Z,1072.00
2019-05-17T04:11:37.926Z,1112.00
2019-05-17T04:12:37.954Z,1156.00
2019-05-17T04:13:37.981Z,1196.00
2019-05-17T04:14:38.022Z,1240.00
2019-05-17T04:15:38.038Z,1284.00
2019-05-17T04:16:38.064Z,1324.00
2019-05-17T04:17:38.092Z,1368.00
2019-05-17T04:18:38.118Z,1412.00
2019-05-17T04:19:38.148Z,1452.00
2019-05-17T04:20:38.175Z,1500.00
2019-05-17T04:21:38.201Z,1540.00
2019-05-17T04:22:38.235Z,1584.00
2019-05-17T04:23:38.281Z,1624.00
2019-05-17T04:24:38.287Z,1668.00
2019-05-17T04:25:38.993Z,1712.00
2019-05-17T04:26:38.343Z,1756.00
2019-05-17T04:27:38.368Z,1804.00
2019-05-17T04:28:38.396Z,1848.00
2019-05-17T04:30:38.452Z,1944.00
2019-05-17T04:31:38.502Z,1992.00
2019-05-17T04:32:38.512Z,2044.00
2019-05-17T04:33:38.539Z,2096.00
2019-05-17T04:34:38.562Z,2148.00
2019-05-17T04:35:38.594Z,2192.00
2019-05-17T04:36:38.617Z,2244.00
2019-05-17T04:37:38.794Z,2288.00
2019-05-17T04:38:38.673Z,2336.00
2019-05-17T04:39:38.702Z,2380.00
2019-05-17T04:40:38.728Z,2420.00
2019-05-17T04:41:45.577Z,2456.00
2019-05-17T04:42:38.784Z,2500.00
2019-05-17T04:43:38.811Z,2544.00
2019-05-17T04:44:38.840Z,2580.00
2019-05-17T04:45:38.867Z,2616.00
2019-05-17T04:46:38.895Z,2656.00
2019-05-17T04:47:38.921Z,2700.00
2019-05-17T04:48:38.949Z,2736.00
2019-05-17T04:49:38.977Z,2768.00
2019-05-17T04:50:39.017Z,2812.00
2019-05-17T04:51:39.035Z,2856.00
2019-05-17T04:52:42.520Z,2888.00
2019-05-17T04:53:39.089Z,2932.00
2019-05-17T04:54:42.295Z,2968.00
2019-05-17T04:55:39.169Z,3004.00
2019-05-17T04:56:42.434Z,3044.00
2019-05-17T04:57:39.202Z,3092.00
2019-05-17T04:58:42.653Z,3124.00
2019-05-17T05:02:05.131Z,3248.00
2019-05-17T05:03:05.156Z,3284.00
2019-05-17T05:04:05.184Z,3324.00
2019-05-17T05:05:05.235Z,3368.00
2019-05-17T05:06:05.239Z,3404.00
2019-05-17T05:07:05.271Z,3436.00
2019-05-17T05:08:05.296Z,3472.00
2019-05-17T05:09:05.324Z,3512.00
2019-05-17T05:10:05.353Z,3552.00
2019-05-17T05:11:05.711Z,3596.00
2019-05-17T05:12:06.346Z,3636.00
2019-05-17T05:13:05.435Z,3672.00
2019-05-17T05:14:05.467Z,3712.00
2019-05-17T05:15:05.493Z,3728.00
2019-05-17T05:16:05.521Z,3768.00
2019-05-17T05:17:05.548Z,3800.00
2019-05-17T05:18:05.579Z,3844.00
2019-05-17T05:19:05.606Z,3880.00
2019-05-17T05:20:05.641Z,3912.00
2019-05-17T05:21:05.674Z,3944.00
2019-05-17T05:22:08.245Z,3972.00
2019-05-17T05:23:05.724Z,4008.00
2019-05-17T05:24:05.747Z,4040.00
2019-05-17T05:25:05.775Z,4084.00
2019-05-17T05:26:05.803Z,4124.00
2019-05-17T05:27:05.830Z,4164.00
2019-05-17T05:28:05.860Z,4188.00
2019-05-17T05:29:05.888Z,4220.00
2019-05-17T05:30:05.917Z,4232.00
2019-05-17T05:31:05.945Z,4244.00
2019-05-17T05:32:05.979Z,4276.00
2019-05-17T05:33:06.003Z,4308.00
2019-05-17T05:34:06.031Z,4344.00
2019-05-17T05:35:06.059Z,4388.00
2019-05-17T05:36:06.090Z,4428.00
2019-05-17T05:37:06.117Z,4464.00
2019-05-17T05:38:06.146Z,4492.00
2019-05-17T05:39:06.174Z,4516.00
2019-05-17T05:40:06.202Z,4540.00
2019-05-17T05:41:06.230Z,4560.00
2019-05-17T05:42:10.450Z,4576.00
2019-05-17T05:43:06.290Z,4592.00
2019-05-17T05:44:06.334Z,4620.00
2019-05-17T05:45:06.346Z,4652.00
2019-05-17T05:46:06.375Z,4684.00
2019-05-17T05:47:06.405Z,4720.00
2019-05-17T05:48:06.432Z,4752.00
2019-05-17T05:49:06.462Z,4784.00
2019-05-17T05:50:06.491Z,4780.00
2019-05-17T05:51:06.545Z,4820.00
2019-05-17T05:52:06.549Z,4844.00
2019-05-17T05:53:06.577Z,4900.00
2019-05-17T05:54:06.607Z,4932.00
2019-05-17T05:55:06.635Z,4932.00
2019-05-17T05:56:06.674Z,4960.00
2019-05-17T05:57:06.694Z,4944.00
2019-05-17T05:58:06.722Z,5028.00
2019-05-17T05:59:06.802Z,5052.00
2019-05-17T06:00:06.793Z,5164.00
2019-05-17T06:01:06.811Z,5120.00
2019-05-17T06:02:06.840Z,5144.00
2019-05-17T06:03:06.870Z,5288.00
2019-05-17T06:04:06.898Z,5256.00
2019-05-17T06:05:06.934Z,5256.00
2019-05-17T06:06:06.956Z,5276.00
2019-05-17T06:07:06.985Z,5228.00
2019-05-17T06:08:07.522Z,5256.00
2019-05-17T06:09:07.044Z,5284.00
2019-05-17T06:10:07.075Z,5308.00
2019-05-17T06:11:07.104Z,5328.00
2019-05-17T06:12:18.972Z,5436.00
2019-05-17T06:13:07.161Z,5456.00
2019-05-17T06:14:07.191Z,5496.00
2019-05-17T06:15:07.221Z,5524.00
2019-05-17T06:16:07.251Z,5552.00
2019-05-17T06:17:07.279Z,5584.00
2019-05-17T06:18:07.311Z,5624.00
2019-05-17T06:19:07.342Z,5652.00
2019-05-17T06:20:07.370Z,5684.00
2019-05-17T06:21:07.399Z,5716.00
2019-05-17T06:22:07.429Z,5748.00
2019-05-17T06:23:07.458Z,5792.00
2019-05-17T06:24:07.488Z,5836.00
2019-05-17T06:25:07.521Z,5880.00
2019-05-17T06:26:07.549Z,5904.00
2019-05-17T06:27:07.602Z,5920.00
2019-05-17T06:28:07.632Z,5956.00
2019-05-17T06:29:07.638Z,5992.00
2019-05-17T06:30:07.668Z,6036.00
2019-05-17T06:31:07.701Z,6076.00
2019-05-17T06:32:07.729Z,6112.00
2019-05-17T06:33:07.758Z,6184.00
2019-05-17T06:34:07.788Z,6216.00
2019-05-17T06:35:07.819Z,6244.00
2019-05-17T06:36:07.875Z,6272.00
2019-05-17T06:37:07.878Z,6292.00
2019-05-17T06:38:07.908Z,6312.00
2019-05-17T06:39:07.941Z,6328.00
2019-05-17T06:40:07.970Z,6352.00
2019-05-17T06:41:07.999Z,6384.00
2019-05-17T06:42:08.030Z,6412.00
2019-05-17T06:43:08.059Z,6432.00
2019-05-17T06:44:08.091Z,6456.00
2019-05-17T06:45:08.137Z,6472.00
2019-05-17T06:46:08.151Z,6484.00
2019-05-17T06:47:08.183Z,6508.00
2019-05-17T06:48:08.214Z,6540.00
2019-05-17T06:49:08.242Z,6568.00
2019-05-17T06:50:08.381Z,6604.00
2019-05-17T06:51:08.303Z,6632.00
2019-05-17T06:52:08.333Z,6656.00
2019-05-17T06:53:08.364Z,6696.00
2019-05-17T06:54:08.398Z,6744.00
2019-05-17T06:55:08.426Z,6788.00
2019-05-17T06:56:08.457Z,6828.00
2019-05-17T06:57:08.487Z,6852.00
2019-05-17T06:58:08.518Z,6884.00
2019-05-17T06:59:08.547Z,6944.00
2019-05-17T07:00:18.140Z,7004.00
2019-05-17T07:01:09.503Z,7068.00
2019-05-17T07:02:10.438Z,7128.00
2019-05-17T07:03:09.558Z,7212.00
2019-05-17T07:04:10.201Z,7300.00
2019-05-17T07:05:09.907Z,7396.00
2019-05-17T07:06:10.822Z,7488.00
2019-05-17T07:07:10.825Z,7592.00
2019-05-17T07:08:10.797Z,7700.00
2019-05-17T07:09:10.054Z,7796.00
2019-05-17T07:10:11.182Z,7892.00
2019-05-17T07:11:09.758Z,7988.00
2019-05-17T07:12:10.486Z,8072.00
2019-05-17T07:13:10.626Z,8132.00
2019-05-17T07:14:09.504Z,8176.00
2019-05-17T07:15:10.738Z,8216.00
2019-05-17T07:16:10.242Z,8240.00
2019-05-17T07:17:09.850Z,8248.00
2019-05-17T07:18:10.283Z,8164.00
2019-05-17T07:19:10.318Z,7992.00
2019-05-17T07:20:10.294Z,8116.00
2019-05-17T07:21:09.995Z,8220.00
2019-05-17T07:22:09.535Z,8248.00
2019-05-17T07:23:10.674Z,8236.00
2019-05-17T07:24:10.050Z,8220.00
2019-05-17T07:25:10.716Z,8188.00
2019-05-17T07:26:11.925Z,8184.00
2019-05-17T07:27:09.982Z,8020.00
2019-05-17T07:28:10.161Z,8012.00
2019-05-17T07:29:10.059Z,8040.00
2019-05-17T07:30:09.931Z,8000.00
2019-05-17T07:32:09.878Z,8232.00
2019-05-17T07:33:10.231Z,8272.00
2019-05-17T07:34:09.641Z,8296.00
2019-05-17T07:35:10.653Z,8340.00
2019-05-17T07:36:10.148Z,8396.00
2019-05-17T07:37:10.513Z,8464.00
2019-05-17T07:38:10.686Z,8528.00
2019-05-17T07:39:10.790Z,8588.00
2019-05-17T07:40:10.958Z,8648.00
2019-05-17T07:41:10.210Z,8708.00
2019-05-17T07:42:09.906Z,8776.00
2019-05-17T07:43:14.696Z,8848.00
2019-05-17T07:44:10.111Z,8944.00
2019-05-17T07:45:10.427Z,9016.00
2019-05-17T07:46:10.011Z,9092.00
2019-05-17T07:47:52.590Z,9212.00
2019-05-17T07:48:52.621Z,9284.00
2019-05-17T07:49:54.671Z,9344.00
2019-05-17T07:50:52.685Z,9384.00
2019-05-17T07:51:52.717Z,9420.00
2019-05-17T07:52:52.775Z,9452.00
2019-05-17T07:53:52.803Z,9500.00
2019-05-17T07:54:52.813Z,9576.00
2019-05-17T07:55:52.844Z,9652.00
2019-05-17T07:56:52.881Z,9724.00
2019-05-17T07:57:52.909Z,9800.00
2019-05-17T07:58:52.938Z,9884.00
2019-05-17T07:59:52.971Z,9944.00
2019-05-17T08:00:53.011Z,10008.00
2019-05-17T08:01:53.035Z,10060.00
2019-05-17T08:02:53.066Z,10112.00
2019-05-17T08:03:53.098Z,10148.00
2019-05-17T08:04:53.134Z,10176.00
2019-05-17T08:05:53.187Z,10196.00
2019-05-17T08:06:53.221Z,10220.00
2019-05-17T08:07:53.449Z,10276.00
2019-05-17T08:09:53.292Z,10404.00
2019-05-17T08:10:53.346Z,10468.00
2019-05-17T08:11:53.355Z,10540.00
2019-05-17T08:12:53.412Z,10616.00
2019-05-17T08:14:53.475Z,10752.00
2019-05-17T08:15:53.485Z,10788.00
2019-05-17T08:16:53.520Z,10844.00
2019-05-17T08:17:53.977Z,10956.00
2019-05-17T08:18:53.581Z,11064.00
2019-05-17T08:19:53.615Z,11148.00
2019-05-17T08:20:53.649Z,11188.00
2019-05-17T08:21:53.682Z,11188.00
2019-05-17T08:22:53.713Z,11212.00
2019-05-17T08:23:53.753Z,11224.00
2019-05-17T08:24:53.779Z,11284.00
2019-05-17T08:25:56.317Z,11432.00
2019-05-17T08:26:53.844Z,11528.00
2019-05-17T08:27:54.079Z,11644.00
2019-05-17T08:28:53.909Z,11704.00
2019-05-17T08:29:53.944Z,11788.00
2019-05-17T08:30:53.987Z,11896.00
2019-05-17T08:31:54.009Z,11928.00
2019-05-17T08:32:54.049Z,11952.00
2019-05-17T08:33:54.076Z,11996.00
2019-05-17T08:34:54.110Z,11996.00
2019-05-17T08:35:54.142Z,12048.00
2019-05-17T08:36:54.176Z,12128.00
2019-05-17T08:37:54.210Z,12184.00
2019-05-17T08:38:54.242Z,12232.00
2019-05-17T08:39:54.277Z,12328.00
2019-05-17T08:40:54.308Z,12452.00
2019-05-17T08:41:54.342Z,12516.00
2019-05-17T08:42:54.375Z,12584.00
2019-05-17T08:43:54.410Z,12628.00
2019-05-17T08:44:54.445Z,12704.00
2019-05-17T08:45:54.476Z,12804.00
2019-05-17T08:46:54.510Z,12908.00
2019-05-17T08:47:54.545Z,13016.00
2019-05-17T08:48:54.577Z,13172.00
2019-05-17T08:49:54.611Z,13292.00
2019-05-17T08:50:54.646Z,13324.00
2019-05-17T08:51:54.679Z,13472.00
2019-05-17T08:52:54.711Z,13544.00
2019-05-17T08:53:54.747Z,13748.00
2019-05-17T08:54:54.780Z,13956.00
2019-05-17T08:55:54.815Z,13940.00
2019-05-17T08:56:54.850Z,14228.00
2019-05-17T08:57:54.886Z,14432.00
2019-05-17T08:58:54.917Z,14604.00
2019-05-17T08:59:54.951Z,14848.00
2019-05-17T09:00:54.987Z,15144.00
2019-05-17T09:01:55.021Z,15456.00
2019-05-17T09:02:55.056Z,15800.00
2019-05-17T09:03:55.089Z,16200.00
2019-05-17T09:04:55.130Z,16636.00
2019-05-17T09:05:55.161Z,17068.00
2019-05-17T09:06:55.193Z,17536.00
2019-05-17T09:07:55.229Z,18112.00
2019-05-17T09:08:55.264Z,18528.00
2019-05-17T09:09:55.303Z,19072.00
2019-05-17T09:10:55.335Z,19712.00
2019-05-17T09:11:55.369Z,20000.00
2019-05-17T09:12:55.406Z,20320.00
2019-05-17T09:13:58.493Z,20608.00
2019-05-17T09:14:55.476Z,20896.00
2019-05-17T09:15:55.511Z,21856.00
2019-05-17T09:16:55.549Z,22272.00
2019-05-17T09:17:55.582Z,22208.00
2019-05-17T09:18:55.842Z,22720.00
2019-05-17T09:19:55.682Z,21984.00
2019-05-17T09:21:55.731Z,20096.00
2019-05-17T09:22:55.760Z,21440.00
2019-05-17T09:23:55.797Z,20928.00
2019-05-17T09:24:55.834Z,21344.00
2019-05-17T09:25:55.870Z,19872.00
2019-05-17T09:26:55.907Z,20128.00
2019-05-17T09:27:55.941Z,20576.00
2019-05-17T09:28:56.029Z,21344.00
2019-05-17T09:29:56.015Z,21280.00
2019-05-17T09:30:56.057Z,21504.00
2019-05-17T09:31:56.416Z,21696.00
2019-05-17T09:32:56.125Z,21632.00
2019-05-17T09:33:56.185Z,19552.00
2019-05-17T09:34:56.421Z,19360.00
2019-05-17T09:35:56.235Z,19424.00
2019-05-17T09:36:56.298Z,19584.00
2019-05-17T09:37:56.308Z,19520.00
2019-05-17T09:38:56.349Z,19808.00
2019-05-17T09:39:56.386Z,21408.00
2019-05-17T09:40:56.418Z,21440.00
2019-05-17T09:41:56.454Z,23392.00
2019-05-17T09:42:56.490Z,24608.00
2019-05-17T09:44:12.165Z,25408.00
2019-05-17T09:44:56.565Z,25504.00
2019-05-17T09:45:56.605Z,24288.00
2019-05-17T09:46:56.638Z,22400.00
2019-05-17T09:47:56.675Z,21152.00
2019-05-17T09:48:56.712Z,23488.00
2019-05-17T09:49:56.751Z,24128.00
2019-05-17T09:50:56.786Z,24608.00
2019-05-17T09:51:56.827Z,25248.00
2019-05-17T09:52:56.861Z,24832.00
2019-05-17T09:53:56.900Z,24160.00
2019-05-17T09:54:56.935Z,23328.00
2019-05-17T09:55:56.973Z,22976.00
2019-05-17T09:56:57.013Z,23328.00
2019-05-17T09:57:57.048Z,24032.00
2019-05-17T09:58:57.085Z,25664.00
2019-05-17T09:59:57.125Z,25856.00
2019-05-17T10:00:57.161Z,25824.00
2019-05-17T10:01:57.198Z,25504.00
2019-05-17T10:02:57.235Z,25056.00
2019-05-17T10:03:59.712Z,25760.00
2019-05-17T10:04:59.654Z,24416.00
2019-05-17T10:05:59.853Z,22272.00
2019-05-17T10:06:59.386Z,25568.00
2019-05-17T10:07:59.872Z,26208.00
2019-05-17T10:08:57.462Z,26400.00
2019-05-17T10:09:59.806Z,26560.00
2019-05-17T10:11:06.026Z,25792.00
2019-05-17T10:11:59.881Z,26848.00
2019-05-17T10:13:00.095Z,27616.00
2019-05-17T10:13:59.019Z,28320.00
2019-05-17T10:14:57.692Z,33888.00
2019-05-17T10:15:57.732Z,50336.00
2019-05-17T10:17:00.176Z,77376.00
2019-05-17T10:18:00.413Z,101024.00
2019-05-17T10:18:59.968Z,87936.00
2019-05-17T10:19:59.940Z,103392.00
2019-05-17T10:20:59.892Z,88480.00
2019-05-17T10:21:59.726Z,64032.00
2019-05-17T10:22:59.570Z,74016.00
2019-05-17T10:24:00.140Z,68832.00
2019-05-17T10:25:00.184Z,91872.00
2019-05-17T10:25:59.585Z,56960.00
2019-05-17T10:26:59.508Z,61440.00
2019-05-17T10:28:00.393Z,56736.00
2019-05-17T10:28:59.367Z,67040.00
2019-05-17T10:29:59.517Z,76064.00
2019-05-17T10:31:02.063Z,65408.00
2019-05-17T10:31:59.868Z,58944.00
2019-05-17T10:32:59.973Z,72352.00
2019-05-17T10:34:00.910Z,70976.00
2019-05-17T10:35:00.333Z,53568.00
2019-05-17T10:36:00.458Z,66912.00
2019-05-17T10:36:58.597Z,67680.00
2019-05-17T10:37:59.562Z,64416.00
2019-05-17T10:38:59.286Z,59616.00
2019-05-17T10:39:58.723Z,59424.00
2019-05-17T10:40:58.789Z,56288.00
2019-05-17T10:41:58.809Z,42208.00
2019-05-17T10:43:00.727Z,43040.00
2019-05-17T10:43:58.897Z,44000.00
2019-05-17T10:44:59.960Z,60448.00
2019-05-17T10:45:59.812Z,70784.00
2019-05-17T10:48:00.777Z,38880.00
2019-05-17T10:48:59.134Z,49312.00
2019-05-17T10:49:59.179Z,51520.00
2019-05-17T10:51:00.355Z,84384.00
2019-05-17T10:51:59.974Z,93344.00
2019-05-17T10:53:00.497Z,56128.00
2019-05-17T10:53:59.978Z,66080.00
2019-05-17T10:54:59.804Z,78048.00
2019-05-17T10:56:00.615Z,63104.00
2019-05-17T10:56:59.788Z,59296.00
2019-05-17T10:58:00.479Z,39872.00
2019-05-17T10:59:00.188Z,44320.00
2019-05-17T11:00:00.220Z,43520.00
2019-05-17T11:01:00.846Z,39424.00
2019-05-17T11:03:00.656Z,48480.00
2019-05-17T11:03:59.793Z,45824.00
2019-05-17T11:05:00.899Z,45344.00
2019-05-17T11:06:00.020Z,38208.00
2019-05-17T11:06:59.897Z,38464.00
2019-05-17T11:08:00.054Z,32832.00
2019-05-17T11:08:59.983Z,34592.00
2019-05-17T11:10:00.609Z,64864.00
2019-05-17T11:11:00.075Z,43648.00
2019-05-17T11:12:00.112Z,55456.00
2019-05-17T11:13:00.156Z,76384.00
2019-05-17T11:14:00.199Z,85440.00
2019-05-17T11:15:09.679Z,94624.00
2019-05-17T11:16:00.307Z,104064.00
2019-05-17T11:17:02.963Z,112416.00
2019-05-17T11:19:00.946Z,114720.00
2019-05-17T11:20:00.461Z,91296.00
2019-05-17T11:21:00.506Z,65088.00
2019-05-17T11:22:00.552Z,67808.00
2019-05-17T11:23:00.596Z,67072.00
2019-05-17T11:24:00.639Z,60512.00
2019-05-17T11:25:00.684Z,39584.00
2019-05-17T11:26:00.731Z,35936.00
2019-05-17T11:27:00.774Z,33472.00
2019-05-17T11:28:00.819Z,39136.00
2019-05-17T11:29:00.865Z,32512.00
2019-05-17T11:30:00.913Z,28320.00
2019-05-17T11:31:00.951Z,27328.00
2019-05-17T11:32:00.997Z,28032.00
2019-05-17T11:33:01.040Z,28192.00
2019-05-17T11:34:01.084Z,25664.00
2019-05-17T11:35:01.141Z,26752.00
2019-05-17T11:36:01.199Z,33632.00
2019-05-17T11:38:01.282Z,36768.00
2019-05-17T11:39:01.299Z,35648.00
2019-05-17T11:40:01.341Z,30816.00
2019-05-17T11:41:18.401Z,36224.00
2019-05-17T11:42:01.426Z,32544.00
2019-05-17T11:43:01.479Z,31072.00
2019-05-17T11:44:01.515Z,30016.00
2019-05-17T11:45:01.568Z,30208.00
2019-05-17T11:46:01.620Z,30176.00
2019-05-17T11:47:01.640Z,30240.00
2019-05-17T11:48:01.678Z,32896.00
2019-05-17T11:49:01.721Z,31200.00
2019-05-17T11:50:01.777Z,35712.00
2019-05-17T11:51:01.801Z,38624.00
2019-05-17T11:52:01.842Z,45888.00
2019-05-17T11:53:01.885Z,41440.00
2019-05-17T11:54:01.929Z,40608.00
2019-05-17T11:55:01.977Z,44928.00
2019-05-17T11:56:02.010Z,45664.00
2019-05-17T11:57:02.050Z,114848.00
2019-05-17T11:58:02.107Z,74080.00
2019-05-17T11:59:02.133Z,108960.00
2019-05-17T12:00:05.810Z,109280.00
2019-05-17T12:01:02.218Z,105536.00
2019-05-17T12:02:02.272Z,115104.00
2019-05-17T12:03:02.302Z,98976.00
2019-05-17T12:04:02.347Z,107136.00
2019-05-17T12:05:02.390Z,78016.00
2019-05-17T12:06:02.436Z,111104.00
2019-05-17T12:07:02.478Z,63136.00
2019-05-17T12:08:02.525Z,37632.00
2019-05-17T12:09:02.567Z,36320.00
2019-05-17T12:10:02.613Z,37280.00
2019-05-17T12:11:02.787Z,39104.00
2019-05-17T12:12:02.706Z,38048.00
2019-05-17T12:13:02.747Z,35680.00
2019-05-17T12:14:02.796Z,33216.00
2019-05-17T12:15:02.848Z,33504.00
2019-05-17T12:16:02.914Z,35904.00
2019-05-17T12:17:02.928Z,36640.00
2019-05-17T12:18:02.980Z,50368.00
2019-05-17T12:19:03.014Z,35488.00
2019-05-17T12:20:03.085Z,32128.00
2019-05-17T12:21:03.108Z,30304.00
2019-05-17T12:22:03.151Z,30080.00
2019-05-17T12:23:03.190Z,31296.00
2019-05-17T12:24:03.235Z,30176.00
2019-05-17T12:25:03.276Z,29056.00
2019-05-17T12:26:03.320Z,28672.00
2019-05-17T12:27:03.363Z,29376.00
2019-05-17T12:28:03.419Z,30368.00
2019-05-17T12:29:03.493Z,30880.00
2019-05-17T12:30:03.737Z,31360.00
2019-05-17T12:32:03.594Z,32352.00
2019-05-17T12:33:03.762Z,33408.00
2019-05-17T12:34:03.674Z,33024.00
2019-05-17T12:35:03.787Z,34592.00
2019-05-17T12:36:03.749Z,40480.00
2019-05-17T12:37:03.788Z,34528.00
2019-05-17T12:38:03.828Z,34720.00
2019-05-17T12:39:03.868Z,53600.00
2019-05-17T12:40:03.913Z,42752.00
2019-05-17T12:41:03.953Z,46272.00
2019-05-17T12:42:04.103Z,30400.00